createdAt,value
2022-11-05T00:00:37.572Z,9.50
2022-11-05T00:03:24.323Z,9.48
2022-11-05T00:06:11.728Z,9.46
2022-11-05T00:08:57.931Z,9.36
2022-11-05T00:11:52.319Z,9.10
2022-11-05T00:14:38.092Z,9.31
2022-11-05T00:17:05.193Z,9.29
2022-11-05T00:19:32.157Z,9.34
2022-11-05T00:22:17.983Z,9.27
2022-11-05T00:25:03.855Z,9.17
2022-11-05T00:27:34.295Z,9.34
2022-11-05T00:30:01.427Z,9.20
2022-11-05T00:32:28.567Z,9.27
2022-11-05T00:34:55.542Z,9.29
2022-11-05T00:37:22.505Z,9.10
2022-11-05T00:39:52.415Z,9.29
2022-11-05T00:42:38.668Z,9.33
2022-11-05T00:45:07.056Z,9.29
2022-11-05T00:47:52.862Z,9.23
2022-11-05T00:50:22.012Z,8.66
2022-11-05T00:53:08.163Z,8.93
2022-11-05T00:55:41.309Z,9.28
2022-11-05T00:58:14.920Z,9.04
2022-11-05T01:00:45.270Z,9.18
2022-11-05T01:03:15.090Z,9.05
2022-11-05T01:05:51.034Z,9.11
2022-11-05T01:08:20.644Z,9.12
2022-11-05T01:10:51.188Z,8.96
2022-11-05T01:13:27.439Z,8.86
2022-11-05T01:15:55.232Z,8.91
2022-11-05T01:18:23.031Z,8.96
2022-11-05T01:20:50.203Z,8.83
2022-11-05T01:23:17.671Z,8.81
2022-11-05T01:25:44.826Z,8.75
2022-11-05T01:28:11.818Z,8.91
2022-11-05T01:30:39.026Z,8.89
2022-11-05T01:33:06.013Z,8.79
2022-11-05T01:35:33.029Z,8.58
2022-11-05T01:37:59.906Z,8.84
2022-11-05T01:40:27.327Z,8.75
2022-11-05T01:42:54.306Z,8.66
2022-11-05T01:45:27.742Z,8.64
2022-11-05T01:48:09.016Z,8.63
2022-11-05T01:51:13.355Z,8.60
2022-11-05T01:53:48.084Z,8.57
2022-11-05T01:56:25.780Z,8.54
2022-11-05T01:59:14.194Z,8.49
2022-11-05T02:04:17.371Z,7.11
2022-11-05T02:06:46.287Z,8.23
2022-11-05T02:09:26.854Z,8.41
2022-11-05T02:11:54.153Z,8.11
2022-11-05T02:14:21.217Z,8.08
2022-11-05T02:17:12.535Z,8.19
2022-11-05T02:20:28.854Z,8.41
2022-11-05T02:23:01.550Z,8.47
2022-11-05T02:25:59.327Z,8.45
2022-11-05T02:28:47.776Z,6.89
2022-11-05T02:31:42.459Z,8.43
2022-11-05T02:34:43.547Z,7.66
2022-11-05T02:37:35.821Z,8.04
2022-11-05T02:40:14.783Z,7.91
2022-11-05T02:43:01.208Z,8.35
2022-11-05T02:45:49.482Z,8.32
2022-11-05T02:48:22.059Z,8.30
2022-11-05T02:51:23.936Z,8.28
2022-11-05T02:54:19.442Z,8.14
2022-11-05T02:56:49.915Z,7.96
2022-11-05T02:59:17.095Z,8.25
2022-11-05T03:01:46.178Z,8.00
2022-11-05T03:04:16.590Z,7.87
2022-11-05T03:07:26.971Z,8.09
2022-11-05T03:10:33.639Z,8.25
2022-11-05T03:13:33.682Z,7.70
2022-11-05T03:16:19.301Z,7.74
2022-11-05T03:19:08.096Z,8.22
2022-11-05T03:22:02.043Z,8.21
2022-11-05T03:24:34.508Z,8.23
2022-11-05T03:27:09.295Z,7.66
2022-11-05T03:29:45.254Z,7.62
2022-11-05T03:32:12.757Z,7.49
2022-11-05T03:34:44.633Z,8.29
2022-11-05T03:37:11.633Z,7.99
2022-11-05T03:39:43.746Z,7.91
2022-11-05T03:42:14.546Z,8.26
2022-11-05T03:44:46.412Z,6.54
2022-11-05T03:47:19.126Z,7.91
2022-11-05T03:50:42.055Z,8.20
2022-11-05T03:53:16.867Z,8.19
2022-11-05T03:56:15.990Z,8.14
2022-11-05T03:58:44.903Z,7.95
2022-11-05T04:01:12.687Z,7.09
2022-11-05T04:03:39.705Z,7.70
2022-11-05T04:06:28.458Z,7.02
2022-11-05T04:09:15.039Z,7.93
2022-11-05T04:12:00.968Z,8.14
2022-11-05T04:14:27.952Z,7.24
2022-11-05T04:17:07.274Z,7.92
2022-11-05T04:20:04.136Z,7.45
2022-11-05T04:22:52.168Z,7.60
2022-11-05T04:25:21.375Z,7.89
2022-11-05T04:27:49.004Z,7.64
2022-11-05T04:30:20.756Z,7.89
2022-11-05T04:33:13.659Z,7.43
2022-11-05T04:35:46.110Z,7.79
2022-11-05T04:38:15.674Z,7.83
2022-11-05T04:40:43.286Z,8.01
2022-11-05T04:43:15.587Z,7.61
2022-11-05T04:45:43.391Z,7.95
2022-11-05T04:48:10.491Z,7.93
2022-11-05T04:50:37.526Z,8.26
2022-11-05T04:53:04.478Z,8.23
2022-11-05T04:55:31.549Z,7.93
2022-11-05T04:57:58.590Z,7.42
2022-11-05T05:00:26.118Z,7.85
2022-11-05T05:02:53.263Z,7.13
2022-11-05T05:05:21.352Z,8.08
2022-11-05T05:07:48.343Z,7.73
2022-11-05T05:10:15.307Z,8.02
2022-11-05T05:12:42.495Z,8.31
2022-11-05T05:15:09.477Z,8.16
2022-11-05T05:17:36.482Z,7.28
2022-11-05T05:20:22.271Z,8.33
2022-11-05T05:22:53.852Z,7.98
2022-11-05T05:25:21.843Z,7.73
2022-11-05T05:27:49.224Z,7.90
2022-11-05T05:30:16.237Z,8.24
2022-11-05T05:32:43.216Z,8.22
2022-11-05T05:35:10.576Z,7.95
2022-11-05T05:37:37.737Z,7.35
2022-11-05T05:40:05.160Z,8.11
2022-11-05T05:42:32.670Z,7.77
2022-11-05T05:44:59.643Z,6.97
2022-11-05T05:47:26.895Z,8.02
2022-11-05T05:49:53.894Z,8.02
2022-11-05T05:52:21.173Z,7.18
2022-11-05T05:54:48.167Z,7.66
2022-11-05T05:57:15.139Z,7.98
2022-11-05T05:59:42.189Z,7.03
2022-11-05T06:02:09.556Z,7.77
2022-11-05T06:04:36.619Z,7.26
2022-11-05T06:07:03.652Z,7.76
2022-11-05T06:09:30.640Z,7.98
2022-11-05T06:11:57.658Z,7.98
2022-11-05T06:14:24.997Z,6.65
2022-11-05T06:16:51.972Z,6.92
2022-11-05T06:19:19.133Z,7.60
2022-11-05T06:21:46.231Z,7.27
2022-11-05T06:24:13.237Z,7.88
2022-11-05T06:26:42.967Z,7.38
2022-11-05T06:29:10.699Z,7.58
2022-11-05T06:31:37.739Z,7.23
2022-11-05T06:34:04.705Z,7.51
2022-11-05T06:36:31.646Z,7.62
2022-11-05T06:38:58.945Z,6.62
2022-11-05T06:41:26.397Z,7.55
2022-11-05T06:43:53.350Z,7.52
2022-11-05T06:46:20.484Z,7.15
2022-11-05T06:48:49.020Z,7.91
2022-11-05T06:51:16.064Z,7.91
2022-11-05T06:53:43.034Z,7.54
2022-11-05T06:56:10.261Z,7.44
2022-11-05T06:58:37.412Z,7.89
2022-11-05T07:01:09.861Z,7.65
2022-11-05T07:03:38.101Z,7.35
2022-11-05T07:06:06.580Z,7.47
2022-11-05T07:08:38.076Z,7.37
2022-11-05T07:11:05.741Z,7.67
2022-11-05T07:13:32.930Z,7.13
2022-11-05T07:15:59.975Z,7.29
2022-11-05T07:18:27.013Z,7.89
2022-11-05T07:20:54.041Z,7.33
2022-11-05T07:23:21.222Z,7.74
2022-11-05T07:25:48.984Z,7.69
2022-11-05T07:28:15.966Z,7.15
2022-11-05T07:30:42.979Z,7.95
2022-11-05T07:33:10.421Z,7.70
2022-11-05T07:35:37.625Z,7.35
2022-11-05T07:38:04.651Z,7.24
2022-11-05T07:40:31.967Z,7.32
2022-11-05T07:43:01.725Z,7.84
2022-11-05T07:45:30.505Z,7.29
2022-11-05T07:48:00.718Z,7.67
2022-11-05T07:50:31.337Z,7.64
2022-11-05T07:53:05.961Z,7.95
2022-11-05T07:55:34.017Z,7.83
2022-11-05T07:58:00.985Z,7.52
2022-11-05T08:00:28.949Z,8.04
2022-11-05T08:03:08.214Z,8.22
2022-11-05T08:05:38.301Z,8.25
2022-11-05T08:08:07.733Z,8.09
2022-11-05T08:10:35.728Z,8.32
2022-11-05T08:13:03.182Z,7.01
2022-11-05T08:15:30.507Z,7.71
2022-11-05T08:18:12.603Z,8.26
2022-11-05T08:20:41.258Z,8.29
2022-11-05T08:23:09.103Z,8.36
2022-11-05T08:25:36.805Z,7.48
2022-11-05T08:28:12.965Z,8.61
2022-11-05T08:30:40.518Z,8.55
2022-11-05T08:33:12.040Z,8.06
2022-11-05T08:35:39.819Z,8.78
2022-11-05T08:38:09.087Z,8.66
2022-11-05T08:40:36.686Z,8.86
2022-11-05T08:43:06.934Z,7.89
2022-11-05T08:45:35.026Z,8.93
2022-11-05T08:48:15.469Z,7.99
2022-11-05T08:50:43.435Z,8.17
2022-11-05T08:53:11.465Z,8.51
2022-11-05T08:55:38.772Z,8.70
2022-11-05T08:58:10.779Z,9.16
2022-11-05T09:00:38.053Z,9.28
2022-11-05T09:03:07.063Z,8.89
2022-11-05T09:05:39.189Z,9.05
2022-11-05T09:08:07.990Z,9.70
2022-11-05T09:10:35.407Z,9.58
2022-11-05T09:13:02.659Z,9.84
2022-11-05T09:15:29.746Z,10.15
2022-11-05T09:17:56.940Z,10.42
2022-11-05T09:20:25.222Z,10.05
2022-11-05T09:22:52.621Z,10.24
2022-11-05T09:25:19.770Z,10.00
2022-11-05T09:27:46.893Z,10.48
2022-11-05T09:30:14.269Z,10.01
2022-11-05T09:32:41.908Z,9.94
2022-11-05T09:35:09.637Z,9.91
2022-11-05T09:37:38.183Z,10.30
2022-11-05T09:40:06.364Z,10.54
2022-11-05T09:42:41.557Z,9.84
2022-11-05T09:45:19.087Z,10.36
2022-11-05T09:48:05.490Z,10.40
2022-11-05T09:50:40.653Z,10.48
2022-11-05T09:53:10.117Z,10.67
2022-11-05T09:55:44.758Z,10.55
2022-11-05T09:58:28.563Z,10.70
2022-11-05T10:00:57.235Z,10.58
2022-11-05T10:03:26.575Z,10.70
2022-11-05T10:06:05.988Z,11.05
2022-11-05T10:08:40.085Z,10.83
2022-11-05T10:11:39.469Z,11.46
2022-11-05T10:14:21.058Z,11.31
2022-11-05T10:17:04.705Z,11.27
2022-11-05T10:20:15.393Z,11.42
2022-11-05T10:22:46.647Z,11.43
2022-11-05T10:25:21.904Z,11.08
2022-11-05T10:27:55.916Z,11.49
2022-11-05T10:30:23.317Z,11.34
2022-11-05T10:32:56.630Z,11.27
2022-11-05T10:35:27.484Z,11.28
2022-11-05T10:37:56.803Z,11.43
2022-11-05T10:40:49.246Z,10.89
2022-11-05T10:43:49.445Z,11.42
2022-11-05T10:46:34.364Z,11.23
2022-11-05T10:49:04.695Z,11.44
2022-11-05T10:51:32.955Z,10.29
2022-11-05T10:54:19.808Z,11.44
2022-11-05T10:56:47.045Z,10.15
2022-11-05T10:59:29.524Z,11.10
2022-11-05T11:02:26.212Z,10.87
2022-11-05T11:04:54.137Z,11.27
2022-11-05T11:07:25.244Z,11.42
2022-11-05T11:09:52.733Z,11.09
2022-11-05T11:12:26.166Z,11.48
2022-11-05T11:15:14.379Z,11.51
2022-11-05T11:17:41.495Z,10.42
2022-11-05T11:20:30.543Z,10.85
2022-11-05T11:23:13.024Z,11.61
2022-11-05T11:25:52.919Z,11.64
2022-11-05T11:28:43.395Z,10.55
2022-11-05T11:31:13.632Z,11.69
2022-11-05T11:33:45.515Z,11.35
2022-11-05T11:36:13.714Z,10.98
2022-11-05T11:38:41.452Z,11.50
2022-11-05T11:41:38.579Z,11.11
2022-11-05T11:44:19.446Z,11.33
2022-11-05T11:46:50.310Z,11.28
2022-11-05T11:49:41.431Z,10.94
2022-11-05T11:52:19.020Z,11.66
2022-11-05T11:54:45.981Z,11.79
2022-11-05T11:57:27.401Z,11.38
2022-11-05T12:00:12.087Z,11.41
2022-11-05T12:02:57.311Z,11.77
2022-11-05T12:05:44.981Z,11.77
2022-11-05T12:08:45.247Z,11.71
2022-11-05T12:11:38.007Z,11.74
2022-11-05T12:14:49.008Z,11.73
2022-11-05T12:17:39.313Z,11.33
2022-11-05T12:20:32.136Z,11.73
2022-11-05T12:24:05.530Z,11.74
2022-11-05T12:26:39.873Z,11.29
2022-11-05T12:29:24.760Z,11.72
2022-11-05T12:32:27.844Z,10.51
2022-11-05T12:35:13.709Z,11.69
2022-11-05T12:38:27.400Z,11.62
2022-11-05T12:40:57.283Z,11.71
2022-11-05T12:43:48.966Z,11.72
2022-11-05T12:46:31.761Z,11.72
2022-11-05T12:49:35.639Z,11.72
2022-11-05T12:52:27.141Z,11.73
2022-11-05T12:55:13.679Z,10.51
2022-11-05T12:57:43.335Z,11.48
2022-11-05T13:00:16.089Z,11.81
2022-11-05T13:03:07.971Z,11.82
2022-11-05T13:05:42.346Z,11.68
2022-11-05T13:08:51.887Z,11.19
2022-11-05T13:11:24.137Z,11.18
2022-11-05T13:13:59.681Z,11.82
2022-11-05T13:16:44.105Z,11.30
2022-11-05T13:19:19.309Z,11.69
2022-11-05T13:21:50.278Z,11.35
2022-11-05T13:24:28.859Z,11.73
2022-11-05T13:27:03.874Z,11.70
2022-11-05T13:29:52.460Z,11.46
2022-11-05T13:32:29.535Z,11.81
2022-11-05T13:34:57.044Z,11.82
2022-11-05T13:37:45.485Z,11.84
2022-11-05T13:40:13.880Z,11.73
2022-11-05T13:43:09.745Z,11.84
2022-11-05T13:46:04.452Z,11.82
2022-11-05T13:48:43.420Z,11.20
2022-11-05T13:51:16.271Z,11.79
2022-11-05T13:53:52.208Z,11.81
2022-11-05T13:56:32.841Z,11.70
2022-11-05T13:59:23.812Z,11.81
2022-11-05T14:01:56.740Z,11.06
2022-11-05T14:04:32.759Z,11.82
2022-11-05T14:07:27.732Z,11.81
2022-11-05T14:09:57.477Z,11.81
2022-11-05T14:12:29.888Z,11.34
2022-11-05T14:15:20.996Z,11.84
2022-11-05T14:18:01.582Z,11.68
2022-11-05T14:20:31.217Z,11.89
2022-11-05T14:23:28.422Z,11.49
2022-11-05T14:26:16.060Z,11.88
2022-11-05T14:28:51.413Z,11.67
2022-11-05T14:31:18.234Z,11.86
2022-11-05T14:34:11.251Z,11.87
2022-11-05T14:36:45.332Z,11.61
2022-11-05T14:39:22.911Z,11.19
2022-11-05T14:42:15.005Z,10.32
2022-11-05T14:44:58.648Z,11.90
2022-11-05T14:47:28.592Z,11.88
2022-11-05T14:50:03.071Z,11.74
2022-11-05T14:52:30.043Z,11.53
2022-11-05T14:54:57.167Z,11.85
2022-11-05T14:57:42.337Z,11.82
2022-11-05T15:00:40.768Z,11.79
2022-11-05T15:03:41.068Z,11.75
2022-11-05T15:06:25.157Z,11.24
2022-11-05T15:08:56.600Z,11.42
2022-11-05T15:11:41.173Z,11.64
2022-11-05T15:14:23.077Z,11.55
2022-11-05T15:16:55.068Z,10.90
2022-11-05T15:19:26.893Z,11.33
2022-11-05T15:21:54.440Z,11.47
2022-11-05T15:24:21.528Z,10.79
2022-11-05T15:26:59.345Z,11.38
2022-11-05T15:29:30.492Z,11.16
2022-11-05T15:31:57.424Z,11.44
2022-11-05T15:34:30.969Z,11.28
2022-11-05T15:37:00.134Z,11.47
2022-11-05T15:39:38.781Z,11.16
2022-11-05T15:42:27.827Z,11.47
2022-11-05T15:44:57.400Z,11.30
2022-11-05T15:47:34.954Z,11.04
2022-11-05T15:50:15.105Z,11.18
2022-11-05T15:52:50.796Z,11.23
2022-11-05T15:55:25.409Z,10.76
2022-11-05T15:58:00.494Z,11.37
2022-11-05T16:00:29.505Z,11.07
2022-11-05T16:03:02.068Z,10.80
2022-11-05T16:05:30.883Z,11.03
2022-11-05T16:07:58.534Z,11.35
2022-11-05T16:10:34.056Z,11.33
2022-11-05T16:13:23.397Z,11.32
2022-11-05T16:15:58.908Z,10.69
2022-11-05T16:18:37.772Z,11.31
2022-11-05T16:21:15.366Z,11.12
2022-11-05T16:23:46.203Z,11.10
2022-11-05T16:29:32.559Z,11.26
2022-11-05T16:32:00.851Z,10.99
2022-11-05T16:34:32.618Z,10.96
2022-11-05T16:36:59.565Z,11.11
2022-11-05T16:39:27.040Z,10.76
2022-11-05T16:41:53.983Z,11.10
2022-11-05T16:44:21.281Z,10.59
2022-11-05T16:46:49.442Z,10.79
2022-11-05T16:49:16.819Z,10.85
2022-11-05T16:51:43.940Z,10.91
2022-11-05T16:54:10.867Z,10.93
2022-11-05T16:56:37.788Z,11.27
2022-11-05T16:59:04.835Z,11.26
2022-11-05T17:01:32.110Z,11.07
2022-11-05T17:03:59.097Z,10.58
2022-11-05T17:06:29.096Z,10.71
2022-11-05T17:08:56.688Z,11.24
2022-11-05T17:11:23.578Z,11.23
2022-11-05T17:13:51.165Z,11.05
2022-11-05T17:16:18.086Z,10.93
2022-11-05T17:18:45.004Z,11.22
2022-11-05T17:21:14.121Z,10.88
2022-11-05T17:23:41.014Z,11.21
2022-11-05T17:26:12.124Z,10.70
2022-11-05T17:28:39.271Z,10.71
2022-11-05T17:31:09.130Z,11.15
2022-11-05T17:33:36.125Z,10.93
2022-11-05T17:36:07.751Z,10.86
2022-11-05T17:38:34.776Z,10.78
2022-11-05T17:41:01.798Z,11.11
2022-11-05T17:43:28.883Z,10.97
2022-11-05T17:46:04.131Z,10.81
2022-11-05T17:48:31.559Z,10.75
2022-11-05T17:50:58.457Z,11.08
2022-11-05T17:53:25.962Z,10.96
2022-11-05T17:55:52.943Z,10.79
2022-11-05T17:58:19.834Z,10.57
2022-11-05T18:00:47.792Z,10.53
2022-11-05T18:03:15.048Z,10.66
2022-11-05T18:05:42.505Z,10.91
2022-11-05T18:08:09.481Z,10.80
2022-11-05T18:10:37.740Z,11.00
2022-11-05T18:13:04.861Z,10.54
2022-11-05T18:15:31.763Z,10.62
2022-11-05T18:17:58.769Z,10.65
2022-11-05T18:20:26.545Z,10.70
2022-11-05T18:22:53.460Z,10.64
2022-11-05T18:25:20.450Z,10.45
2022-11-05T18:27:49.866Z,10.26
2022-11-05T18:30:16.771Z,10.40
2022-11-05T18:32:44.745Z,10.86
2022-11-05T18:35:13.312Z,10.83
2022-11-05T18:37:40.397Z,11.02
2022-11-05T18:40:07.798Z,10.70
2022-11-05T18:42:34.720Z,11.03
2022-11-05T18:45:01.610Z,11.05
2022-11-05T18:47:28.492Z,10.85
2022-11-05T18:49:56.050Z,10.56
2022-11-05T18:52:22.985Z,10.87
2022-11-05T18:54:50.015Z,10.74
2022-11-05T18:57:16.904Z,10.33
2022-11-05T18:59:46.805Z,10.43
2022-11-05T19:02:14.291Z,10.75
2022-11-05T19:04:46.880Z,11.06
2022-11-05T19:07:23.870Z,10.53
2022-11-05T19:09:50.819Z,11.05
2022-11-05T19:12:17.964Z,10.68
2022-11-05T19:14:44.876Z,10.16
2022-11-05T19:17:11.955Z,10.36
2022-11-05T19:19:38.871Z,11.05
2022-11-05T19:22:05.755Z,11.05
2022-11-05T19:24:32.656Z,11.05
2022-11-05T19:26:59.682Z,10.40
2022-11-05T19:29:27.174Z,10.89
2022-11-05T19:31:54.700Z,10.84
2022-11-05T19:34:21.627Z,10.68
2022-11-05T19:36:49.095Z,10.57
2022-11-05T19:39:15.983Z,11.04
2022-11-05T19:41:42.894Z,10.86
2022-11-05T19:44:10.370Z,10.74
2022-11-05T19:46:37.303Z,11.06
2022-11-05T19:49:04.214Z,11.07
2022-11-05T19:51:32.205Z,10.74
2022-11-05T19:54:00.817Z,10.43
2022-11-05T19:56:29.835Z,10.60
2022-11-05T19:58:57.260Z,10.67
2022-11-05T20:01:25.456Z,10.89
2022-11-05T20:03:52.894Z,10.94
2022-11-05T20:06:22.135Z,10.92
2022-11-05T20:09:15.135Z,10.77
2022-11-05T20:11:40.053Z,11.11
2022-11-05T20:14:08.166Z,11.11
2022-11-05T20:16:40.041Z,10.82
2022-11-05T20:19:09.591Z,11.10
2022-11-05T20:21:36.610Z,10.74
2022-11-05T20:24:04.110Z,10.44
2022-11-05T20:26:31.281Z,10.84
2022-11-05T20:28:58.164Z,10.51
2022-11-05T20:31:25.519Z,10.78
2022-11-05T20:33:53.424Z,10.81
2022-11-05T20:36:23.404Z,10.93
2022-11-05T20:38:51.399Z,11.11
2022-11-05T20:41:19.274Z,11.11
2022-11-05T20:43:46.981Z,10.91
2022-11-05T20:46:15.795Z,10.79
2022-11-05T20:48:43.329Z,10.67
2022-11-05T20:51:12.706Z,10.84
2022-11-05T20:53:39.690Z,11.13
2022-11-05T20:56:10.434Z,10.73
2022-11-05T20:58:37.666Z,10.57
2022-11-05T21:01:05.274Z,10.60
2022-11-05T21:03:32.307Z,10.83
2022-11-05T21:06:01.828Z,10.93
2022-11-05T21:08:28.839Z,10.59
2022-11-05T21:10:56.693Z,11.14
2022-11-05T21:13:24.060Z,10.65
2022-11-05T21:15:52.828Z,11.15
2022-11-05T21:18:21.060Z,10.59
2022-11-05T21:20:48.119Z,10.94
2022-11-05T21:23:15.525Z,10.33
2022-11-05T21:25:42.877Z,10.96
2022-11-05T21:28:11.250Z,10.94
2022-11-05T21:30:41.606Z,10.76
2022-11-05T21:33:09.021Z,10.37
2022-11-05T21:35:40.224Z,10.44
2022-11-05T21:38:07.255Z,10.63
2022-11-05T21:40:34.200Z,10.84
2022-11-05T21:43:01.082Z,10.59
2022-11-05T21:45:28.030Z,10.63
2022-11-05T21:47:57.537Z,10.59
2022-11-05T21:50:44.539Z,11.06
2022-11-05T21:53:33.960Z,11.08
2022-11-05T21:56:20.074Z,10.89
2022-11-05T21:59:05.496Z,10.71
2022-11-05T22:01:32.496Z,11.07
2022-11-05T22:04:03.067Z,10.60
2022-11-05T22:06:33.067Z,10.26
2022-11-05T22:09:00.137Z,11.06
2022-11-05T22:11:27.023Z,10.90
2022-11-05T22:13:53.961Z,10.85
2022-11-05T22:16:20.936Z,10.22
2022-11-05T22:18:47.899Z,10.86
2022-11-05T22:21:21.747Z,10.47
2022-11-05T22:23:49.146Z,11.03
2022-11-05T22:26:16.597Z,10.56
2022-11-05T22:28:43.504Z,10.84
2022-11-05T22:31:19.785Z,10.69
2022-11-05T22:33:46.743Z,10.36
2022-11-05T22:36:13.789Z,10.59
2022-11-05T22:38:41.090Z,11.02
2022-11-05T22:41:14.492Z,10.77
2022-11-05T22:43:41.364Z,10.49
2022-11-05T22:46:10.926Z,10.52
2022-11-05T22:48:38.676Z,10.25
2022-11-05T22:51:06.964Z,10.98
2022-11-05T22:53:35.384Z,10.81
2022-11-05T22:56:06.038Z,10.78
2022-11-05T22:58:32.976Z,10.98
2022-11-05T23:01:01.174Z,10.58
2022-11-05T23:03:28.892Z,10.78
2022-11-05T23:05:59.866Z,10.33
2022-11-05T23:08:45.388Z,10.98
2022-11-05T23:11:33.868Z,10.97
2022-11-05T23:14:00.954Z,10.33
2022-11-05T23:16:46.996Z,10.65
2022-11-05T23:19:40.251Z,10.46
2022-11-05T23:22:44.766Z,10.39
2022-11-05T23:25:19.640Z,10.93
2022-11-05T23:27:49.661Z,10.30
2022-11-05T23:30:25.042Z,10.18
2022-11-05T23:32:53.192Z,10.27
2022-11-05T23:35:43.069Z,10.74
2022-11-05T23:38:28.886Z,10.42
2022-11-05T23:41:19.897Z,10.94
2022-11-05T23:44:06.040Z,10.38
2022-11-05T23:46:51.822Z,10.95
2022-11-05T23:49:19.552Z,10.94
2022-11-05T23:51:46.686Z,10.47
2022-11-05T23:54:13.914Z,9.60
2022-11-05T23:56:40.961Z,10.98
2022-11-05T23:59:07.954Z,10.88
